Terminal Aerodrome Forecast
Issued by NWS

Home | Current Version | Previous Version | Text Only | Print | Product List | Glossary On
Versions: 1 2 3 4 5 6 7 8 9 10 11 12 13 14 15 16 17
000
FTUS46 KMTR 281100
TAFSJC
TAF
KSJC 281121Z 2812/2912 00000KT P6SM SKC
     FM281900 31008KT P6SM SKC
     FM282200 31012G18KT P6SM SKC
     FM290300 31009KT P6SM SKC
     FM290600 VRB03KT P6SM SKC=

USA.gov is the U.S. government's official web portal to all federal, state and local government web resources and services.